Time;durP1;ratioP1;P1;durP2;ratioP2;P2;SDS_P1;SDS_P2;PMS_P1;PMS_P2;Temp;Humidity;BMP_temperature;BMP_pressure;BME280_temperature;BME280_humidity;BME280_pressure;Samples;Min_cycle;Max_cycle;Signal;HPM_P1;HPM_P2
2023/02/10 00:01:35;;;;;;;81.03;43.83;;;-2.00;99.90;;;-3.54;100.00;99162.13;5052734;28;20469;-74
2023/02/10 00:04:01;;;;;;;86.78;45.47;;;-2.00;99.90;;;-3.59;100.00;99157.28;5053137;28;20398;-76
2023/02/10 00:06:27;;;;;;;84.00;43.42;;;-2.00;99.90;;;-3.61;100.00;99160.97;5052759;28;20408;-76
2023/02/10 00:08:56;;;;;;;85.38;45.25;;;-2.10;99.90;;;-3.62;100.00;99156.72;5053085;28;20466;-76
2023/02/10 00:11:56;;;;;;;92.18;46.80;;;-2.10;99.90;;;-3.63;100.00;99158.47;5052842;28;20479;-76
2023/02/10 00:14:11;;;;;;;91.03;45.60;;;-2.10;99.90;;;-3.61;100.00;99159.16;5052623;28;20437;-75
2023/02/10 00:16:37;;;;;;;94.40;47.80;;;-2.10;99.90;;;-3.61;100.00;99154.00;5052721;28;20410;-76
2023/02/10 00:19:04;;;;;;;89.78;46.83;;;-2.10;99.90;;;-3.63;100.00;99157.66;5052908;28;20397;-76
2023/02/10 00:21:30;;;;;;;96.25;46.97;;;-2.10;99.90;;;-3.67;100.00;99158.81;5052443;28;20484;-76
2023/02/10 00:23:56;;;;;;;92.00;47.38;;;-2.10;99.90;;;-3.64;100.00;99150.84;5052650;28;20492;-76
2023/02/10 00:26:22;;;;;;;96.03;49.72;;;-2.10;99.90;;;-3.62;100.00;99148.97;5052628;28;20397;-76
2023/02/10 00:28:48;;;;;;;87.78;46.97;;;-2.10;99.90;;;-3.64;100.00;99146.47;5052511;28;20409;-76
2023/02/10 00:31:21;;;;;;;81.68;44.47;;;-2.10;99.90;;;-3.71;100.00;99153.06;5052536;28;20454;-76
2023/02/10 00:33:47;;;;;;;91.40;46.85;;;-2.10;99.90;;;-3.75;100.00;99151.66;5052463;28;20393;-76
2023/02/10 00:36:14;;;;;;;82.25;45.22;;;-2.20;99.90;;;-3.78;100.00;99154.47;5052339;28;20392;-76
2023/02/10 00:38:41;;;;;;;91.43;48.10;;;-2.20;99.90;;;-3.74;100.00;99160.22;5052391;28;20401;-76
2023/02/10 00:41:10;;;;;;;90.88;47.63;;;-2.20;99.90;;;-3.75;100.00;99164.56;5052312;28;20425;-76
2023/02/10 00:43:45;;;;;;;87.20;46.08;;;-2.20;99.90;;;-3.80;100.00;99163.28;5052084;28;20894;-76
2023/02/10 00:46:12;;;;;;;93.88;47.28;;;-2.30;99.90;;;-3.79;100.00;99164.94;5052165;28;20419;-76
2023/02/10 00:48:39;;;;;;;90.72;47.33;;;-2.30;99.90;;;-3.79;100.00;99167.53;5052281;28;20504;-76
2023/02/10 00:51:06;;;;;;;97.53;48.22;;;-2.30;99.90;;;-3.80;100.00;99176.22;5052139;28;20397;-76
2023/02/10 00:53:33;;;;;;;90.47;46.63;;;-2.20;99.90;;;-3.82;100.00;99178.09;5051905;28;20413;-77
2023/02/10 00:55:59;;;;;;;89.85;46.85;;;-2.30;99.90;;;-3.79;100.00;99181.28;5051949;28;20406;-76
2023/02/10 00:58:26;;;;;;;85.03;45.27;;;-2.30;99.90;;;-3.83;100.00;99174.69;5050739;28;20415;-76
2023/02/10 01:00:53;;;;;;;87.60;46.55;;;-2.30;99.90;;;-3.82;100.00;99175.50;5052060;28;20428;-76
2023/02/10 01:03:20;;;;;;;91.88;48.10;;;-2.30;99.90;;;-3.77;100.00;99181.19;5050375;28;20405;-76
2023/02/10 01:05:47;;;;;;;87.72;46.20;;;-2.20;99.90;;;-3.74;100.00;99176.59;5051622;28;20405;-76
2023/02/10 01:08:14;;;;;;;88.78;46.60;;;-2.30;99.90;;;-3.76;100.00;99170.69;5051901;28;20393;-76
2023/02/10 01:10:40;;;;;;;77.85;44.58;;;-2.30;99.90;;;-3.78;100.00;99175.19;5051888;28;20485;-76
2023/02/10 01:13:11;;;;;;;88.22;47.15;;;-2.30;99.90;;;-3.78;100.00;99170.00;5051488;28;20400;-76
2023/02/10 01:15:42;;;;;;;86.25;46.47;;;-2.30;99.90;;;-3.80;100.00;99166.69;5051710;28;20398;-76
2023/02/10 01:18:08;;;;;;;79.85;41.53;;;-2.30;99.90;;;-3.83;100.00;99161.75;5050314;28;20764;-76
2023/02/10 01:20:37;;;;;;;83.05;43.28;;;-2.30;99.90;;;-3.86;100.00;99167.19;5050601;28;20452;-76
2023/02/10 01:23:04;;;;;;;85.15;43.03;;;-2.30;99.90;;;-3.86;100.00;99168.94;5051448;28;20408;-77
2023/02/10 01:25:31;;;;;;;77.90;41.67;;;-2.30;99.90;;;-3.85;100.00;99170.59;5051376;28;20402;-77
2023/02/10 01:27:57;;;;;;;91.82;45.78;;;-2.30;99.90;;;-3.86;100.00;99181.88;5051722;28;20422;-76
2023/02/10 01:30:23;;;;;;;92.23;47.60;;;-2.30;99.90;;;-3.84;100.00;99174.81;5051444;28;20441;-76
2023/02/10 01:32:53;;;;;;;89.40;45.03;;;-2.30;99.90;;;-3.93;100.00;99181.50;5051089;28;20406;-76
2023/02/10 01:35:19;;;;;;;88.10;46.17;;;-2.30;99.90;;;-3.93;100.00;99179.75;5051362;28;20794;-76
2023/02/10 01:37:45;;;;;;;87.88;45.33;;;-2.40;99.90;;;-3.91;100.00;99177.06;5050132;28;20475;-76
2023/02/10 01:40:12;;;;;;;90.33;46.97;;;-2.40;99.90;;;-3.91;100.00;99175.25;5051240;28;20503;-76
2023/02/10 01:42:40;;;;;;;85.97;46.43;;;-2.40;99.90;;;-3.94;100.00;99166.94;5051004;28;20492;-76
2023/02/10 01:45:20;;;;;;;88.82;45.83;;;-2.40;99.90;;;-3.95;100.00;99173.88;5051215;28;20409;-76
2023/02/10 01:47:49;;;;;;;87.90;46.88;;;-2.40;99.90;;;-3.94;100.00;99169.50;5051890;28;20389;-76
2023/02/10 01:50:17;;;;;;;83.95;43.97;;;-2.40;99.90;;;-3.98;100.00;99170.66;5058036;28;20409;-76
2023/02/10 01:52:44;;;;;;;87.93;46.83;;;-2.40;99.90;;;-4.00;100.00;99172.56;5059825;28;20463;-77
2023/02/10 01:55:15;;;;;;;83.55;43.13;;;-2.40;99.90;;;-4.02;100.00;99184.78;5054032;28;20408;-76
2023/02/10 01:57:44;;;;;;;87.75;44.97;;;-2.40;99.90;;;-4.01;100.00;99183.84;5049519;28;20413;-76
2023/02/10 02:00:12;;;;;;;80.50;43.10;;;-2.40;99.90;;;-4.05;100.00;99178.06;5050714;28;20492;-76
2023/02/10 02:02:41;;;;;;;90.03;45.53;;;-2.50;99.90;;;-4.03;100.00;99185.72;5050653;28;20429;-76
2023/02/10 02:05:21;;;;;;;81.70;42.75;;;-2.50;99.90;;;-4.09;100.00;99191.34;5050431;28;20487;-76
2023/02/10 02:07:48;;;;;;;91.40;46.97;;;-2.50;99.90;;;-4.07;100.00;99198.06;5050708;28;20499;-77
2023/02/10 02:10:15;;;;;;;83.77;43.73;;;-2.50;99.90;;;-4.07;100.00;99194.66;5050852;28;20489;-76
2023/02/10 02:12:52;;;;;;;87.28;45.58;;;-2.50;99.90;;;-4.10;100.00;99185.34;5050374;28;20440;-76
2023/02/10 02:15:27;;;;;;;80.20;42.28;;;-2.50;99.90;;;-4.11;100.00;99196.63;5050027;28;20867;-77
2023/02/10 02:18:03;;;;;;;86.13;45.50;;;-2.50;99.90;;;-4.09;100.00;99197.34;5050765;28;20669;-76
2023/02/10 02:21:26;;;;;;;85.00;44.25;;;-2.50;99.90;;;-4.11;100.00;99206.97;5050638;28;20405;-76
2023/02/10 02:24:41;;;;;;;85.93;44.72;;;-2.50;99.90;;;-4.04;100.00;99199.59;5050501;28;20405;-76
2023/02/10 02:27:59;;;;;;;89.53;45.30;;;-2.50;99.90;;;-4.15;100.00;99205.56;5050504;28;20393;-76
2023/02/10 02:30:54;;;;;;;94.28;47.88;;;-2.50;99.90;;;-4.16;100.00;99206.50;5034105;28;20416;-76
2023/02/10 02:33:27;;;;;;;88.03;45.72;;;-2.60;99.90;;;-4.16;100.00;99210.84;5050254;28;20398;-76
2023/02/10 02:36:04;;;;;;;97.82;49.63;;;-2.60;99.90;;;-4.13;100.00;99202.84;5049493;28;20894;-76
2023/02/10 02:38:30;;;;;;;97.95;49.63;;;-2.50;99.90;;;-4.17;100.00;99210.03;5050175;28;20424;-76
2023/02/10 02:40:56;;;;;;;100.97;51.78;;;-2.60;99.90;;;-4.14;100.00;99206.41;5050064;28;20752;-77
2023/02/10 02:43:23;;;;;;;89.10;47.35;;;-2.60;99.90;;;-4.17;100.00;99211.78;5050069;28;20713;-76
2023/02/10 02:45:58;;;;;;;98.60;49.90;;;-2.60;99.90;;;-4.14;100.00;99216.75;5050117;28;20469;-76
2023/02/10 02:48:41;;;;;;;88.35;48.00;;;-2.60;99.90;;;-4.17;100.00;99212.59;5050303;28;20401;-76
2023/02/10 02:51:19;;;;;;;92.93;47.83;;;-2.60;99.90;;;-4.15;100.00;99215.09;5050195;28;20404;-77
2023/02/10 02:53:54;;;;;;;104.60;52.33;;;-2.60;99.90;;;-4.05;100.00;99211.69;5050181;28;20805;-76
2023/02/10 02:56:29;;;;;;;93.78;47.63;;;-2.50;99.90;;;-4.07;100.00;99208.41;5049976;28;20402;-77
2023/02/10 02:59:04;;;;;;;87.18;45.65;;;-2.50;99.90;;;-4.06;100.00;99206.66;5050076;28;20390;-77
2023/02/10 03:01:36;;;;;;;85.72;46.05;;;-2.50;99.90;;;-4.06;100.00;99214.41;5049766;28;20425;-77
2023/02/10 03:04:05;;;;;;;84.68;45.33;;;-2.50;99.90;;;-4.07;100.00;99208.41;5050066;28;20405;-77
2023/02/10 03:06:30;;;;;;;93.30;49.17;;;-2.50;99.90;;;-4.05;100.00;99210.88;5049860;28;20516;-77
2023/02/10 03:08:57;;;;;;;85.72;46.22;;;-2.50;99.90;;;-4.04;100.00;99222.84;5048626;28;20417;-77
2023/02/10 03:11:23;;;;;;;81.97;45.88;;;-2.50;99.90;;;-4.02;100.00;99227.00;5049809;28;20440;-77
2023/02/10 03:13:48;;;;;;;87.43;46.05;;;-2.50;99.90;;;-4.00;100.00;99222.53;5049866;28;20463;-77
2023/02/10 03:16:15;;;;;;;81.77;44.73;;;-2.40;99.90;;;-3.98;100.00;99212.06;5049723;28;20401;-76
2023/02/10 03:18:40;;;;;;;91.38;47.75;;;-2.40;99.90;;;-3.92;100.00;99216.78;5049856;28;20416;-76
2023/02/10 03:21:08;;;;;;;86.70;45.47;;;-2.40;99.90;;;-3.93;100.00;99208.22;5049760;28;20825;-76
2023/02/10 03:23:34;;;;;;;88.03;47.53;;;-2.40;99.90;;;-3.90;100.00;99214.88;5049638;28;20894;-76
2023/02/10 03:26:00;;;;;;;93.60;47.65;;;-2.30;99.90;;;-3.81;100.00;99216.78;5049810;28;20409;-76
2023/02/10 03:28:27;;;;;;;90.63;45.75;;;-2.30;99.90;;;-3.80;100.00;99215.84;5053075;28;20503;-76
2023/02/10 03:30:53;;;;;;;92.97;45.92;;;-2.30;99.90;;;-3.75;100.00;99216.31;5053632;28;20874;-76
2023/02/10 03:33:19;;;;;;;83.80;43.38;;;-2.20;99.90;;;-3.74;100.00;99217.16;5053738;28;20405;-76
2023/02/10 03:35:46;;;;;;;83.45;43.53;;;-2.20;99.90;;;-3.73;100.00;99222.22;5053492;28;20393;-76
2023/02/10 03:38:15;;;;;;;81.22;44.33;;;-2.20;99.90;;;-3.72;100.00;99220.47;5053491;28;20413;-76
2023/02/10 03:40:41;;;;;;;74.47;40.80;;;-2.20;99.90;;;-3.75;100.00;99224.09;5053551;28;20401;-76
2023/02/10 03:43:07;;;;;;;89.27;46.90;;;-2.20;99.90;;;-3.69;100.00;99233.19;5053396;28;20409;-76
2023/02/10 03:45:33;;;;;;;75.13;40.90;;;-2.20;99.90;;;-3.73;100.00;99231.75;5053554;28;20405;-76
2023/02/10 03:47:59;;;;;;;82.30;43.45;;;-2.20;99.90;;;-3.75;100.00;99236.19;5053744;28;20397;-76
2023/02/10 03:50:25;;;;;;;82.07;43.92;;;-2.20;99.90;;;-3.75;100.00;99233.59;5053775;28;20405;-76
2023/02/10 03:52:51;;;;;;;80.97;44.08;;;-2.20;99.90;;;-3.76;100.00;99240.53;5055075;28;20393;-76
2023/02/10 03:55:19;;;;;;;83.83;44.57;;;-2.20;99.90;;;-3.76;100.00;99235.38;5055266;28;20402;-76
2023/02/10 03:57:45;;;;;;;84.18;45.88;;;-2.20;99.90;;;-3.74;100.00;99237.84;5053906;28;20424;-76
2023/02/10 04:00:14;;;;;;;83.85;44.05;;;-2.20;99.90;;;-3.75;100.00;99236.19;5053184;28;20414;-76
2023/02/10 04:02:40;;;;;;;74.18;41.10;;;-2.20;99.90;;;-3.78;100.00;99245.03;5052824;28;20739;-76
2023/02/10 04:05:06;;;;;;;78.75;41.63;;;-2.20;99.90;;;-3.77;100.00;99241.50;5053025;28;20409;-76
2023/02/10 04:07:32;;;;;;;82.40;44.88;;;-2.20;99.90;;;-3.76;100.00;99242.34;5053098;28;20401;-76
2023/02/10 04:09:58;;;;;;;79.88;42.70;;;-2.20;99.90;;;-3.79;100.00;99240.78;5053031;28;20409;-77
2023/02/10 04:12:26;;;;;;;79.03;42.92;;;-2.30;99.90;;;-3.80;100.00;99233.97;5052693;28;20401;-76
2023/02/10 04:14:51;;;;;;;73.75;40.53;;;-2.20;99.90;;;-3.83;100.00;99231.59;5052892;28;20428;-76
2023/02/10 04:17:17;;;;;;;70.68;39.25;;;-2.30;99.90;;;-3.89;100.00;99237.25;5052749;28;20413;-76
2023/02/10 04:19:43;;;;;;;72.00;40.50;;;-2.30;99.90;;;-3.90;100.00;99238.16;5052969;28;20859;-76
2023/02/10 04:22:09;;;;;;;71.05;40.63;;;-2.30;99.90;;;-3.96;100.00;99231.69;5052524;28;20885;-76
2023/02/10 04:24:35;;;;;;;70.05;38.20;;;-2.40;99.90;;;-3.97;100.00;99230.06;5052746;28;20496;-76
2023/02/10 04:27:01;;;;;;;78.22;40.97;;;-2.40;99.90;;;-3.98;100.00;99228.41;5052693;28;20531;-76
2023/02/10 04:29:29;;;;;;;69.65;39.92;;;-2.50;99.90;;;-4.04;100.00;99234.03;5052703;28;20404;-76
2023/02/10 04:31:55;;;;;;;78.00;41.65;;;-2.50;99.90;;;-4.00;100.00;99240.63;5052397;28;20411;-76
2023/02/10 04:34:21;;;;;;;75.38;39.60;;;-2.40;99.90;;;-4.06;100.00;99246.25;5052573;28;20392;-76
2023/02/10 04:36:47;;;;;;;74.95;39.97;;;-2.50;99.90;;;-4.06;100.00;99242.88;5052448;28;20414;-76
2023/02/10 04:39:13;;;;;;;73.50;39.43;;;-2.50;99.90;;;-4.04;100.00;99240.97;5051797;28;20771;-76
2023/02/10 04:41:38;;;;;;;71.85;37.20;;;-2.50;99.90;;;-4.07;100.00;99248.97;5052200;28;20907;-76
2023/02/10 04:44:05;;;;;;;72.43;36.80;;;-2.50;99.90;;;-4.08;100.00;99247.31;5052645;28;20409;-76
2023/02/10 04:46:32;;;;;;;71.07;38.92;;;-2.50;99.90;;;-4.11;100.00;99247.53;5052212;28;20916;-76
2023/02/10 04:48:58;;;;;;;67.82;37.38;;;-2.50;99.90;;;-4.11;100.00;99244.94;5052312;28;20416;-76
2023/02/10 04:51:24;;;;;;;70.95;39.20;;;-2.50;99.90;;;-4.07;100.00;99246.38;5052093;28;20398;-76
2023/02/10 04:53:50;;;;;;;73.63;39.58;;;-2.50;99.90;;;-4.09;100.00;99250.84;5052383;28;20428;-76
2023/02/10 04:56:16;;;;;;;72.65;39.78;;;-2.50;99.90;;;-4.11;100.00;99252.69;5052028;28;20483;-76
2023/02/10 04:58:42;;;;;;;67.97;38.65;;;-2.50;99.90;;;-4.13;100.00;99255.38;5052128;28;20906;-76
2023/02/10 05:01:08;;;;;;;73.72;39.13;;;-2.50;99.90;;;-4.13;100.00;99252.81;5051958;28;20459;-76
2023/02/10 05:03:35;;;;;;;75.30;39.28;;;-2.60;99.90;;;-4.11;100.00;99255.28;5051887;28;20440;-76
2023/02/10 05:06:07;;;;;;;64.88;37.72;;;-2.60;99.90;;;-4.21;100.00;99251.75;5077113;22;20430;-78
2023/02/10 05:08:34;;;;;;;65.97;37.17;;;-2.60;99.90;;;-4.24;100.00;99257.94;5071741;28;20396;-77
2023/02/10 05:10:59;;;;;;;72.85;39.10;;;-2.70;99.90;;;-4.23;100.00;99254.44;5071163;28;20407;-78
2023/02/10 05:13:25;;;;;;;70.88;36.13;;;-2.60;99.90;;;-4.25;100.00;99261.47;5071437;28;20408;-77
2023/02/10 05:15:51;;;;;;;75.07;40.90;;;-2.70;99.90;;;-4.25;100.00;99269.22;5071529;28;20411;-78
2023/02/10 05:18:17;;;;;;;71.78;38.15;;;-2.70;99.90;;;-4.22;100.00;99266.44;5070777;28;20776;-78
2023/02/10 05:20:44;;;;;;;68.75;36.80;;;-2.60;99.90;;;-4.29;100.00;99267.81;5036190;28;20421;-79
2023/02/10 05:23:10;;;;;;;77.43;39.88;;;-2.70;99.90;;;-4.28;100.00;99266.84;5040741;28;20413;-79
2023/02/10 05:25:36;;;;;;;71.17;37.93;;;-2.70;99.90;;;-4.32;100.00;99266.25;5036919;28;20417;-76
2023/02/10 05:28:02;;;;;;;73.65;40.03;;;-2.70;99.90;;;-4.33;100.00;99272.38;5043020;28;20513;-79
2023/02/10 05:30:28;;;;;;;64.37;36.77;;;-2.70;99.90;;;-4.34;100.00;99280.22;5022674;28;20478;-78
2023/02/10 05:32:54;;;;;;;69.15;36.65;;;-2.70;99.90;;;-4.31;100.00;99269.69;5035400;28;20508;-78
2023/02/10 05:35:20;;;;;;;68.50;38.13;;;-2.80;99.90;;;-4.35;100.00;99269.06;5040774;28;20956;-78
2023/02/10 05:37:47;;;;;;;74.18;38.65;;;-2.80;99.90;;;-4.34;100.00;99275.88;5049360;28;20421;-78
2023/02/10 05:40:13;;;;;;;63.47;36.65;;;-2.70;99.90;;;-4.35;100.00;99270.81;5044994;28;20401;-78
2023/02/10 05:42:39;;;;;;;72.47;40.20;;;-2.70;99.90;;;-4.34;100.00;99275.06;5041206;28;20937;-78
2023/02/10 05:45:05;;;;;;;69.75;38.42;;;-2.70;99.90;;;-4.35;100.00;99287.16;5041010;28;20900;-77
2023/02/10 05:47:31;;;;;;;75.45;38.60;;;-2.80;99.90;;;-4.26;100.00;99282.25;5039484;28;20909;-78
2023/02/10 05:49:57;;;;;;;65.05;34.35;;;-2.70;99.90;;;-4.38;100.00;99283.97;5050133;28;20393;-78
2023/02/10 05:52:23;;;;;;;66.57;36.00;;;-2.80;99.90;;;-4.42;100.00;99287.69;5049512;28;20412;-78
2023/02/10 05:54:50;;;;;;;65.82;36.38;;;-2.80;99.90;;;-4.40;100.00;99283.25;5042732;28;20550;-78
2023/02/10 05:57:16;;;;;;;69.77;37.80;;;-2.80;99.90;;;-4.41;100.00;99287.59;5046881;28;20492;-78
2023/02/10 05:59:42;;;;;;;66.15;35.42;;;-2.80;99.90;;;-4.41;100.00;99295.34;5045750;28;20496;-78
2023/02/10 06:02:08;;;;;;;66.93;36.90;;;-2.80;99.90;;;-4.40;100.00;99294.41;5032350;28;20409;-78
2023/02/10 06:04:34;;;;;;;71.07;37.15;;;-2.80;99.90;;;-4.36;100.00;99302.78;5037879;28;20892;-79
2023/02/10 06:07:00;;;;;;;70.95;37.95;;;-2.80;99.90;;;-4.41;100.00;99291.94;5050137;28;20401;-78
2023/02/10 06:09:27;;;;;;;66.53;35.58;;;-2.80;99.90;;;-4.45;100.00;99303.44;5039412;28;20511;-78
2023/02/10 06:11:54;;;;;;;60.78;35.17;;;-2.80;99.90;;;-4.47;100.00;99307.91;5042143;28;20454;-78
2023/02/10 06:14:20;;;;;;;72.82;38.58;;;-2.90;99.90;;;-4.45;100.00;99306.84;5036541;28;20415;-78
2023/02/10 06:16:46;;;;;;;72.18;38.85;;;-2.80;99.90;;;-4.48;100.00;99316.56;5038918;28;21433;-78
2023/02/10 06:19:12;;;;;;;64.93;34.65;;;-2.90;99.90;;;-4.51;100.00;99325.38;5041867;28;20421;-78
2023/02/10 06:21:38;;;;;;;68.30;36.83;;;-2.90;99.90;;;-4.47;100.00;99331.16;5040508;28;20406;-77
2023/02/10 06:24:05;;;;;;;62.58;34.55;;;-2.90;99.90;;;-4.55;100.00;99326.53;5040525;28;20397;-76
2023/02/10 06:26:31;;;;;;;70.75;37.15;;;-2.90;99.90;;;-4.55;100.00;99328.28;5040334;28;20849;-78
2023/02/10 06:28:58;;;;;;;68.43;36.97;;;-2.90;99.90;;;-4.49;100.00;99320.91;5029794;28;20403;-78
2023/02/10 06:31:25;;;;;;;71.25;37.35;;;-2.90;99.90;;;-4.52;100.00;99330.66;5030011;28;20403;-75
2023/02/10 06:33:51;;;;;;;76.60;37.90;;;-2.90;99.90;;;-4.50;100.00;99336.53;5030268;28;20399;-75
2023/02/10 06:36:17;;;;;;;64.20;34.85;;;-2.90;99.90;;;-4.46;100.00;99337.97;5030144;28;20403;-79
2023/02/10 06:38:43;;;;;;;66.28;36.25;;;-2.90;99.90;;;-4.59;100.00;99338.03;5013644;28;21482;-79
2023/02/10 06:41:09;;;;;;;60.20;33.90;;;-2.90;99.90;;;-4.64;100.00;99336.69;5049323;28;20492;-80
2023/02/10 06:43:35;;;;;;;59.88;33.00;;;-3.00;99.90;;;-4.63;100.00;99338.31;5047272;28;20388;-79
2023/02/10 06:46:02;;;;;;;70.25;38.03;;;-3.10;99.90;;;-4.60;100.00;99346.69;5033082;28;20411;-77
2023/02/10 06:48:28;;;;;;;63.38;34.78;;;-3.00;99.90;;;-4.61;100.00;99349.38;5039572;28;20405;-79
2023/02/10 06:50:54;;;;;;;61.72;34.88;;;-3.00;99.90;;;-4.65;100.00;99350.53;5044855;28;20909;-79
2023/02/10 06:53:20;;;;;;;61.40;34.40;;;-3.00;99.90;;;-4.64;100.00;99354.75;5039878;28;20522;-77
2023/02/10 06:55:46;;;;;;;69.03;37.50;;;-3.00;99.90;;;-4.52;100.00;99361.69;5047356;28;20458;-78
2023/02/10 06:58:12;;;;;;;63.83;35.03;;;-3.00;99.90;;;-4.57;100.00;99354.22;5028518;28;20761;-78
2023/02/10 07:00:38;;;;;;;67.65;36.50;;;-3.00;99.90;;;-4.56;100.00;99367.97;5032659;28;20503;-78
2023/02/10 07:03:05;;;;;;;65.38;35.83;;;-3.00;99.90;;;-4.58;100.00;99375.81;5048726;28;20496;-77
2023/02/10 07:05:31;;;;;;;61.92;34.78;;;-3.00;99.90;;;-4.56;100.00;99375.72;5040406;28;20953;-76
2023/02/10 07:08:02;;;;;;;64.18;36.50;;;-3.00;99.90;;;-4.57;100.00;99374.06;5043676;28;20407;-78
2023/02/10 07:10:28;;;;;;;68.40;37.80;;;-3.00;99.90;;;-4.56;100.00;99375.72;5031328;28;20409;-77
2023/02/10 07:12:54;;;;;;;63.90;35.55;;;-3.00;99.90;;;-4.55;100.00;99383.38;5046402;28;20475;-79
2023/02/10 07:15:22;;;;;;;63.78;34.13;;;-3.00;99.90;;;-4.56;100.00;99373.13;5045270;28;20508;-79
2023/02/10 07:17:50;;;;;;;68.05;36.63;;;-3.00;99.90;;;-4.53;100.00;99365.19;5052471;28;20425;-77
2023/02/10 07:20:18;;;;;;;65.43;36.88;;;-2.90;99.90;;;-4.52;100.00;99374.59;5048847;28;20413;-80
2023/02/10 07:22:44;;;;;;;61.65;34.75;;;-2.90;99.90;;;-4.49;100.00;99369.19;5054200;28;20466;-77
2023/02/10 07:25:10;;;;;;;60.88;34.28;;;-2.90;99.90;;;-4.49;100.00;99370.03;5032377;28;20409;-76
2023/02/10 07:27:36;;;;;;;62.37;34.63;;;-2.90;99.90;;;-4.42;100.00;99381.56;5053613;28;20949;-77
2023/02/10 07:30:02;;;;;;;64.22;34.97;;;-2.90;99.90;;;-4.44;100.00;99378.28;5049531;28;20409;-76
2023/02/10 07:32:28;;;;;;;73.10;38.38;;;-2.90;99.90;;;-4.36;100.00;99388.91;5052255;28;20905;-76
2023/02/10 07:34:54;;;;;;;62.57;34.03;;;-2.80;99.90;;;-4.34;100.00;99387.03;5048784;28;20430;-77
2023/02/10 07:37:21;;;;;;;68.10;37.60;;;-2.80;99.90;;;-4.28;100.00;99382.38;5050740;28;20992;-76
2023/02/10 07:39:47;;;;;;;67.68;36.03;;;-2.70;99.90;;;-4.28;100.00;99384.00;5049996;28;20425;-75
2023/02/10 07:42:13;;;;;;;72.10;38.10;;;-2.70;99.90;;;-4.21;100.00;99389.56;5051889;28;20545;-76
2023/02/10 07:44:39;;;;;;;62.50;35.13;;;-2.70;99.90;;;-4.18;100.00;99391.94;5053093;28;20409;-76
2023/02/10 07:47:05;;;;;;;67.65;36.97;;;-2.60;99.90;;;-4.13;100.00;99392.44;5052397;28;20393;-77
2023/02/10 07:49:31;;;;;;;66.15;36.42;;;-2.60;99.90;;;-4.06;100.00;99398.03;5051951;28;20393;-77
2023/02/10 07:51:58;;;;;;;64.22;36.08;;;-2.60;99.90;;;-4.05;100.00;99390.13;5044614;28;20414;-80
2023/02/10 07:54:25;;;;;;;67.93;37.72;;;-2.50;99.90;;;-3.98;100.00;99391.34;5018419;28;20484;-80
2023/02/10 07:56:51;;;;;;;66.82;36.90;;;-2.50;99.90;;;-3.88;100.00;99380.34;5051805;28;20405;-81
2023/02/10 07:59:17;;;;;;;68.10;36.30;;;-2.40;99.90;;;-3.85;100.00;99377.53;5053366;28;20405;-78
2023/02/10 08:01:45;;;;;;;61.45;35.55;;;-2.40;99.90;;;-3.81;100.00;99374.59;5052778;28;20408;-84
2023/02/10 08:04:11;;;;;;;64.97;36.38;;;-2.30;99.90;;;-3.74;100.00;99375.81;5052974;28;20402;-79
2023/02/10 08:06:37;;;;;;;67.07;38.33;;;-2.20;99.90;;;-3.68;100.00;99380.53;5052799;28;20463;-76
2023/02/10 08:09:04;;;;;;;63.75;35.33;;;-2.20;99.90;;;-3.62;100.00;99389.63;5035066;28;20440;-76
2023/02/10 08:11:32;;;;;;;60.65;35.55;;;-2.10;99.90;;;-3.58;100.00;99376.34;5043267;28;20400;-76
2023/02/10 08:13:58;;;;;;;62.47;35.20;;;-2.10;99.90;;;-3.53;100.00;99374.22;5065743;28;20402;-76
2023/02/10 08:16:24;;;;;;;60.07;34.90;;;-2.00;99.90;;;-3.47;100.00;99372.97;5035996;28;20484;-80
2023/02/10 08:18:50;;;;;;;60.00;33.67;;;-2.00;99.90;;;-3.41;100.00;99374.28;5072569;28;20532;-77
2023/02/10 08:21:16;;;;;;;65.10;35.90;;;-1.90;99.90;;;-3.38;100.00;99374.06;5049902;28;20441;-76
2023/02/10 08:23:42;;;;;;;60.13;34.90;;;-1.90;99.90;;;-3.34;100.00;99385.81;5034521;28;20976;-79
2023/02/10 08:26:12;;;;;;;69.65;38.30;;;-1.90;99.90;;;-3.28;100.00;99385.34;5052502;28;20410;-77
2023/02/10 08:28:40;;;;;;;73.63;39.67;;;-1.80;99.90;;;-3.19;100.00;99385.50;5052723;28;20766;-77
2023/02/10 08:31:09;;;;;;;73.18;39.28;;;-1.70;99.90;;;-3.10;100.00;99393.53;5052497;28;20408;-76
2023/02/10 08:33:36;;;;;;;65.50;37.63;;;-1.70;99.90;;;-2.98;100.00;99390.81;5051745;28;20759;-74
2023/02/10 08:36:04;;;;;;;64.93;36.33;;;-1.50;99.90;;;-2.86;100.00;99395.09;5034252;28;20413;-76
2023/02/10 08:38:30;;;;;;;63.75;36.63;;;-1.40;99.90;;;-2.76;100.00;99396.00;5052067;28;20413;-75
2023/02/10 08:40:57;;;;;;;61.33;35.30;;;-1.30;99.90;;;-2.66;100.00;99395.31;5034354;28;20928;-75
2023/02/10 08:43:25;;;;;;;60.75;34.63;;;-1.30;99.90;;;-2.54;100.00;99392.59;5052037;28;20401;-76
2023/02/10 08:45:55;;;;;;;60.97;35.25;;;-1.20;99.90;;;-2.45;100.00;99389.28;5052134;28;20492;-75
2023/02/10 08:48:21;;;;;;;64.45;36.42;;;-1.10;99.90;;;-2.36;100.00;99393.75;5033412;28;20413;-75
2023/02/10 08:50:47;;;;;;;60.25;35.05;;;-1.00;99.90;;;-2.35;100.00;99385.03;5049390;28;20425;-75
2023/02/10 08:53:13;;;;;;;57.65;34.22;;;-0.90;99.90;;;-2.19;100.00;99384.66;5025482;28;20423;-77
2023/02/10 08:55:39;;;;;;;59.67;34.13;;;-0.80;99.90;;;-2.14;100.00;99392.91;5038486;28;20405;-80
2023/02/10 08:58:05;;;;;;;57.05;34.53;;;-0.80;99.90;;;-1.99;100.00;99393.44;5013617;28;20430;-76
2023/02/10 09:00:31;;;;;;;51.70;31.77;;;-0.60;99.90;;;-1.92;100.00;99398.97;5041384;28;20407;-77
2023/02/10 09:02:59;;;;;;;59.63;34.83;;;-0.60;99.90;;;-1.76;100.00;99397.63;5027389;28;20414;-76
2023/02/10 09:05:26;;;;;;;62.65;35.83;;;-0.40;99.90;;;-1.68;100.00;99400.41;5042984;28;21109;-75
2023/02/10 09:07:51;;;;;;;63.55;36.55;;;-0.40;99.90;;;-1.53;100.00;99394.94;5031209;28;20429;-76
2023/02/10 09:10:18;;;;;;;68.90;38.05;;;-0.20;99.90;;;-1.34;100.00;99389.84;5051468;28;20899;-76
2023/02/10 09:12:44;;;;;;;65.25;36.00;;;0.00;99.90;;;-1.28;100.00;99397.16;5062126;28;20413;-76
2023/02/10 09:15:10;;;;;;;56.97;31.13;;;0.10;99.90;;;-1.08;100.00;99396.34;5056760;28;20409;-74
2023/02/10 09:17:36;;;;;;;56.97;32.83;;;0.20;99.90;;;-0.91;100.00;99394.94;5046119;28;20440;-76
2023/02/10 09:20:05;;;;;;;57.53;33.38;;;0.30;99.90;;;-0.74;100.00;99391.69;5035045;28;20415;-77
2023/02/10 09:22:31;;;;;;;57.45;31.98;;;0.50;99.90;;;-0.66;100.00;99394.47;5031496;28;20788;-76
2023/02/10 09:24:59;;;;;;;55.45;29.83;;;0.60;99.90;;;-0.60;100.00;99396.56;5040705;28;20409;-76
2023/02/10 09:27:25;;;;;;;50.28;29.92;;;0.70;99.90;;;-0.33;100.00;99392.53;5046453;28;20906;-76
2023/02/10 09:29:51;;;;;;;57.40;30.15;;;0.90;99.90;;;-0.34;100.00;99393.50;5023322;28;20411;-75
2023/02/10 09:32:17;;;;;;;50.67;29.67;;;1.00;99.90;;;-0.26;100.00;99394.50;5014521;28;20430;-75
2023/02/10 09:34:44;;;;;;;50.00;29.17;;;1.00;99.90;;;-0.17;100.00;99396.28;5016558;28;20420;-76
2023/02/10 09:37:12;;;;;;;47.38;28.83;;;1.10;99.90;;;0.08;100.00;99394.13;5029921;28;20494;-77
2023/02/10 09:39:38;;;;;;;46.63;29.37;;;1.30;99.90;;;0.18;100.00;99401.00;5043620;28;20426;-74
2023/02/10 09:42:13;;;;;;;53.47;30.73;;;1.40;99.90;;;0.22;100.00;99397.19;5030946;28;20545;-77
2023/02/10 09:44:47;;;;;;;50.92;30.52;;;1.40;99.90;;;0.55;100.00;99393.31;5042602;28;20413;-75
2023/02/10 09:47:41;;;;;;;46.05;28.48;;;1.70;99.90;;;0.56;100.00;99399.38;5013521;28;20415;-75
2023/02/10 09:50:36;;;;;;;45.55;26.88;;;1.70;99.90;;;0.76;100.00;99395.78;5033080;28;25134;-74
2023/02/10 09:53:11;;;;;;;47.33;27.92;;;1.90;99.90;;;0.97;100.00;99403.44;5037994;28;20533;-74
2023/02/10 09:55:43;;;;;;;46.90;29.00;;;2.10;99.90;;;1.36;100.00;99402.34;5033014;28;20473;-76
2023/02/10 09:58:21;;;;;;;49.00;30.05;;;2.40;99.90;;;2.16;100.00;99398.22;5050116;28;20922;-76
2023/02/10 10:00:52;;;;;;;45.70;28.13;;;3.20;99.90;;;2.66;100.00;99391.50;5036874;28;25101;-73
2023/02/10 10:03:24;;;;;;;47.88;26.73;;;3.90;99.90;;;2.67;100.00;99392.31;5047539;28;20435;-76
2023/02/10 10:06:03;;;;;;;39.07;24.87;;;4.10;99.90;;;3.37;100.00;99385.25;5050443;28;20530;-74